Time;durP1;ratioP1;P1;durP2;ratioP2;P2;SDS_P1;SDS_P2;PMS_P1;PMS_P2;Temp;Humidity;BMP_temperature;BMP_pressure;BME280_temperature;BME280_humidity;BME280_pressure;Samples;Min_cycle;Max_cycle;Signal;HPM_P1;HPM_P2
2021/09/29 00:03:40;;;;;;;15.8;13.8;;;;;;;6.95;100;99174.17;;;;
2021/09/29 00:13:35;;;;;;;17;13;;;;;;;6.86;100;99170.44;;;;
2021/09/29 00:23:34;;;;;;;17.9;12.4;;;;;;;6.77;100;99166.67;;;;
2021/09/29 00:33:34;;;;;;;17.8;14.5;;;;;;;6.68;100;99162.94;;;;
2021/09/29 00:43:31;;;;;;;16;12.3;;;;;;;6.7;100;99160;;;;
2021/09/29 00:53:30;;;;;;;17.4;12.2;;;;;;;6.61;100;99159.72;;;;
2021/09/29 01:03:28;;;;;;;17.2;13.4;;;;;;;6.53;100;99152.2;;;;
2021/09/29 01:13:27;;;;;;;12.6;11.3;;;;;;;6.46;100;99160.5;;;;
2021/09/29 01:23:26;;;;;;;14;11.9;;;;;;;6.35;100;99137.46;;;;
2021/09/29 01:33:24;;;;;;;13.9;10.3;;;;;;;6.25;100;99137.45;;;;
2021/09/29 01:43:23;;;;;;;14.5;12.2;;;;;;;6.16;100;99122.19;;;;
2021/09/29 01:53:22;;;;;;;12.6;11.3;;;;;;;6.07;100;99103.19;;;;
2021/09/29 02:03:20;;;;;;;20.3;12.2;;;;;;;5.95;100;99095.41;;;;
2021/09/29 02:13:19;;;;;;;13;11.6;;;;;;;5.81;100;99083.56;;;;
2021/09/29 02:23:18;;;;;;;13;10.7;;;;;;;5.74;100;99088.36;;;;
2021/09/29 02:33:16;;;;;;;14;11.4;;;;;;;5.64;100;99080.31;;;;
2021/09/29 02:43:15;;;;;;;14.1;10.4;;;;;;;5.62;100;99078.98;;;;
2021/09/29 02:53:13;;;;;;;12.9;9;;;;;;;5.62;100;99076.3;;;;
2021/09/29 03:03:12;;;;;;;15.2;12.3;;;;;;;5.54;100;99078.42;;;;
2021/09/29 03:13:10;;;;;;;24.8;16;;;;;;;5.68;100;99076.05;;;;
2021/09/29 03:23:09;;;;;;;20.4;18.2;;;;;;;5.84;100;99077.69;;;;
2021/09/29 03:33:08;;;;;;;22.5;17.1;;;;;;;5.98;100;99072.66;;;;
2021/09/29 03:43:06;;;;;;;18.8;16.5;;;;;;;6.07;100;99065.73;;;;
2021/09/29 03:53:04;;;;;;;17.9;15.9;;;;;;;6.14;100;99052.09;;;;
2021/09/29 04:03:03;;;;;;;21.1;17;;;;;;;6.01;100;99043.5;;;;
2021/09/29 04:13:02;;;;;;;21.8;19.6;;;;;;;6.1;100;99040.3;;;;
2021/09/29 04:23:01;;;;;;;22.7;16.4;;;;;;;6.14;100;99036.84;;;;
2021/09/29 04:33:00;;;;;;;27.7;20.6;;;;;;;6.19;100;99031.47;;;;
2021/09/29 04:42:58;;;;;;;23.7;18.6;;;;;;;6.15;100;99029.59;;;;
2021/09/29 04:52:57;;;;;;;23.7;21.1;;;;;;;6.21;100;99031.22;;;;
2021/09/29 05:02:56;;;;;;;22.3;17.7;;;;;;;6.2;100;99030.41;;;;
2021/09/29 05:12:54;;;;;;;20.9;18.2;;;;;;;6.1;100;99016.22;;;;
2021/09/29 05:22:53;;;;;;;24;18.9;;;;;;;6.17;100;99020.24;;;;
2021/09/29 05:32:52;;;;;;;17.9;15.9;;;;;;;6.34;100;99019.96;;;;
2021/09/29 05:42:51;;;;;;;24.7;16;;;;;;;6.5;100;99018.86;;;;
2021/09/29 05:52:49;;;;;;;21.9;14.9;;;;;;;6.63;100;99015.62;;;;
2021/09/29 06:02:48;;;;;;;19;15.9;;;;;;;6.81;100;99023.09;;;;
2021/09/29 06:12:47;;;;;;;23;17.8;;;;;;;6.94;100;99019.05;;;;
2021/09/29 06:22:46;;;;;;;16.8;13.5;;;;;;;6.98;100;99031.61;;;;
2021/09/29 06:32:45;;;;;;;20.4;16.1;;;;;;;7.3;100;99035.78;;;;
2021/09/29 06:42:44;;;;;;;16.2;14.5;;;;;;;7.58;100;99035.91;;;;
2021/09/29 06:52:43;;;;;;;20.4;17;;;;;;;7.89;100;99033.84;;;;
2021/09/29 07:02:49;;;;;;;22.4;18.2;;;;;;;8.08;100;99045.53;;;;
2021/09/29 07:12:41;;;;;;;23.9;17.8;;;;;;;8.23;100;99049.16;;;;
2021/09/29 07:22:43;;;;;;;17.8;14.9;;;;;;;8.34;100;99053.4;;;;
2021/09/29 07:32:39;;;;;;;19;15.8;;;;;;;8.55;100;99062.89;;;;
2021/09/29 07:42:39;;;;;;;28.1;17.3;;;;;;;8.62;100;99063.36;;;;
2021/09/29 07:52:39;;;;;;;23.2;17.1;;;;;;;9.19;100;99064.41;;;;
2021/09/29 08:02:39;;;;;;;21.3;14.9;;;;;;;9.44;100;99061.42;;;;
2021/09/29 08:12:39;;;;;;;19.6;14.9;;;;;;;9.68;100;99070.26;;;;
2021/09/29 08:22:34;;;;;;;19.6;14.8;;;;;;;9.71;100;99066.98;;;;
2021/09/29 08:32:38;;;;;;;21.8;14.2;;;;;;;9.87;100;99070.25;;;;
2021/09/29 08:42:38;;;;;;;20.8;15.5;;;;;;;10.34;100;99069.33;;;;
2021/09/29 09:22:30;;;;;;;17.8;16.1;;;;;;;11.26;100;99061.19;;;;
2021/09/29 09:32:29;;;;;;;23.9;19.6;;;;;;;11.44;100;99052.2;;;;
2021/09/29 09:42:29;;;;;;;19.7;17.6;;;;;;;12;100;99068.83;;;;
2021/09/29 09:52:28;;;;;;;21.3;18;;;;;;;12.19;100;99047.03;;;;
2021/09/29 10:02:28;;;;;;;21.1;18.9;;;;;;;12.77;100;99046.95;;;;
2021/09/29 10:12:35;;;;;;;21.4;17.1;;;;;;;12.51;100;99037.88;;;;
2021/09/29 10:32:28;;;;;;;19.6;16.6;;;;;;;12.67;100;99033.67;;;;
2021/09/29 10:42:38;;;;;;;20.1;17.7;;;;;;;12.87;100;99024.24;;;;
2021/09/29 10:52:46;;;;;;;21.7;15.5;;;;;;;12.87;100;99019.63;;;;
2021/09/29 11:32:32;;;;;;;20.8;17.2;;;;;;;14.12;100;98997.27;;;;
2021/09/29 12:12:26;;;;;;;18.6;15.9;;;;;;;15.07;100;98957.89;;;;
2021/09/29 12:22:23;;;;;;;26.6;16.1;;;;;;;15.02;100;98963.53;;;;
2021/09/29 12:32:46;;;;;;;25.1;15.9;;;;;;;15.32;100;98961.59;;;;
2021/09/29 12:42:23;;;;;;;17.7;14.7;;;;;;;15.51;100;98970.14;;;;
2021/09/29 12:52:26;;;;;;;15.2;12.7;;;;;;;15.5;100;98960.39;;;;
2021/09/29 13:02:22;;;;;;;19;14.9;;;;;;;15.65;100;98956.29;;;;
2021/09/29 13:12:22;;;;;;;24.2;12.9;;;;;;;15.86;100;98964.44;;;;
2021/09/29 13:22:24;;;;;;;18.6;13.5;;;;;;;15.95;100;98963.23;;;;
2021/09/29 13:42:23;;;;;;;21.2;15.2;;;;;;;16.21;100;98954.04;;;;
2021/09/29 13:52:23;;;;;;;26.3;15.2;;;;;;;16.69;100;98948.73;;;;
2021/09/29 14:32:27;;;;;;;16.5;13.3;;;;;;;17.06;100;98934;;;;
2021/09/29 14:42:22;;;;;;;18.6;15.4;;;;;;;16.86;100;98936.83;;;;
2021/09/29 14:52:22;;;;;;;18.4;14.4;;;;;;;16.92;100;98935.47;;;;
2021/09/29 15:02:22;;;;;;;23.9;14.1;;;;;;;16.8;100;98924.59;;;;
2021/09/29 15:12:22;;;;;;;18;12.4;;;;;;;16.47;100;98936.3;;;;
2021/09/29 15:32:36;;;;;;;108.6;96.9;;;;;;;16.07;100;98944.23;;;;
2021/09/29 15:52:35;;;;;;;18;12.7;;;;;;;15.72;100;98936.73;;;;
2021/09/29 16:02:25;;;;;;;22;14.5;;;;;;;15.53;100;98935.27;;;;
2021/09/29 16:32:27;;;;;;;27.7;20.5;;;;;;;14.64;100;98938.31;;;;
2021/09/29 16:42:20;;;;;;;28.6;22;;;;;;;14.71;100;98925.05;;;;
2021/09/29 16:52:28;;;;;;;28.5;21.1;;;;;;;14.47;100;98917.45;;;;
2021/09/29 17:02:19;;;;;;;24.7;20.6;;;;;;;14.17;100;98925.81;;;;
2021/09/29 17:12:19;;;;;;;33.2;22.6;;;;;;;13.96;100;98939.23;;;;
2021/09/29 17:22:18;;;;;;;23.2;20.9;;;;;;;13.78;100;98935.74;;;;
2021/09/29 17:32:27;;;;;;;34;21.7;;;;;;;13.47;100;98944.02;;;;
2021/09/29 17:52:23;;;;;;;28.7;22.8;;;;;;;13.51;100;98963.94;;;;
2021/09/29 18:02:20;;;;;;;24.1;19.8;;;;;;;13.48;100;98969.2;;;;
2021/09/29 18:12:16;;;;;;;25.7;20.7;;;;;;;13.55;100;98972.23;;;;
2021/09/29 18:22:16;;;;;;;24;20.7;;;;;;;13.56;100;98973.84;;;;
2021/09/29 18:32:15;;;;;;;29.6;21.8;;;;;;;13.7;100;98982.61;;;;
2021/09/29 18:42:17;;;;;;;23.9;21.2;;;;;;;13.79;100;98977.98;;;;
2021/09/29 18:52:14;;;;;;;34.2;21.7;;;;;;;13.8;100;98981.49;;;;
2021/09/29 19:12:13;;;;;;;25.7;19.4;;;;;;;13.44;100;98989.89;;;;
2021/09/29 19:22:13;;;;;;;36.3;21.1;;;;;;;13.39;100;99009.01;;;;
2021/09/29 19:32:12;;;;;;;27.5;23.2;;;;;;;13.23;100;99010.54;;;;
2021/09/29 19:42:12;;;;;;;34;30.6;;;;;;;13.2;100;99022;;;;
2021/09/29 20:12:12;;;;;;;46.8;34.9;;;;;;;12.88;100;99021.2;;;;
2021/09/29 20:22:10;;;;;;;39.3;34;;;;;;;12.58;100;99039.05;;;;
2021/09/29 20:32:09;;;;;;;40.4;32.7;;;;;;;12.57;100;99039.34;;;;
2021/09/29 20:52:08;;;;;;;41;31.9;;;;;;;12.44;100;99049.13;;;;
2021/09/29 21:02:08;;;;;;;37.8;31.9;;;;;;;12.52;100;99061.91;;;;
2021/09/29 21:12:12;;;;;;;31.7;28.6;;;;;;;12.65;100;99072.95;;;;
2021/09/29 21:22:07;;;;;;;33.7;30.2;;;;;;;12.72;100;99078.72;;;;
2021/09/29 21:32:06;;;;;;;35.5;28.6;;;;;;;12.75;100;99076.2;;;;
2021/09/29 21:42:13;;;;;;;38.3;29.5;;;;;;;12.94;100;99086.81;;;;
2021/09/29 22:22:23;;;;;;;34.2;29.1;;;;;;;12.85;100;99097.58;;;;
2021/09/29 23:12:08;;;;;;;33.2;28.5;;;;;;;12.91;100;99120.68;;;;
2021/09/29 23:41:59;;;;;;;35.2;30.1;;;;;;;13.3;100;99130.79;;;;
2021/09/29 23:51:59;;;;;;;30.9;27.8;;;;;;;13.37;100;99138.46;;;;
